Laukaa, Finland
Kieli:  Suomi
0°C CurCond
Päivitetty24/11/2017 01:45 
 

Lähistön Lentoasemien Säätiloja:

 

EFJY - Jyvaskyla (mil/C,) Finland
Etäisyys Sääasemalta: PKo 21km
Päivitetty: 24/11/2017 01:20
Sumua, Pilvistä
Sumua, Pilvistä
 Tuulen suunta EKa
Tuuli: EKa 28 km/h
Lämpötila: 0°C
Tuulen purevuus: -6°C
Kastepiste: 0°C
Ilmankosteus: 100%
Ilmanpaine: 1003 hPa
Yhteenveto: Sumua
Pilvisyys: Pilvistä
Näkyvyys: 4 km
Pilvisyystiedot: Pilvistä 61 m
2017/11/23 23:20 EFJY 232320Z AUTO 16015KT 3900 BR OVC002 00/00 Q1003
EFHA - Halli (fin-Afb), Finland
Etäisyys Sääasemalta: Lo 56km
Päivitetty: 24/11/2017 01:20
Sumua, Pilvistä
Sumua, Pilvistä
 Tuulen suunta EKa
Tuuli: EKa 22 km/h
Lämpötila: 0°C
Tuulen purevuus: -6°C
Kastepiste: 0°C
Ilmankosteus: 100%
Ilmanpaine: 1002 hPa
Yhteenveto: Sumua
Pilvisyys: Pilvistä
Näkyvyys: 2 km
Pilvisyystiedot: Pilvistä 61 m
2017/11/23 23:20 EFHA 232320Z AUTO 15012KT 2400 BR OVC002 00/00 Q1002
EFMI - Mikkeli, Finland
Etäisyys Sääasemalta: IKa 105km
Päivitetty: 24/11/2017 01:20
Sumua, Pilvistä
Sumua, Pilvistä
 Tuulen suunta Ka
Tuuli: Ka 22 km/h
Lämpötila: 0°C
Tuulen purevuus: -6°C
Kastepiste: 0°C
Ilmankosteus: 100%
Ilmanpaine: 1007 hPa
Yhteenveto: Sumua
Pilvisyys: Pilvistä
Näkyvyys: 4 km
Pilvisyystiedot: Pilvistä 91 m
2017/11/23 23:20 EFMI 232320Z AUTO 14012KT 100V180 4200 BR OVC003 00/M00 Q1007
 
EFTP - Tampere/Pirkkala, Finland
Etäisyys Sääasemalta: Lo 135km
Päivitetty: 24/11/2017 01:20
Sumua, Pilvistä
Sumua, Pilvistä
 Tuulen suunta Ka
Tuuli: Ka 26 km/h, Puuskatuuli: 44 km/h
Lämpötila: 1°C
Tuulen purevuus: -4°C
Kastepiste: 1°C
Ilmankosteus: 100%
Ilmanpaine: 1001 hPa
Yhteenveto: Sumua
Pilvisyys: Pilvistä
Näkyvyys: 2 km
Pilvisyystiedot: Pilvistä 30 m
2017/11/23 23:20 EFTP 232320Z AUTO 14014G24KT 1800 BR OVC001 01/01 Q1001
EFKU - Kuopio (mil/Civ), Finland
Etäisyys Sääasemalta: Ko 146km
Päivitetty: 24/11/2017 01:20
Heikko jäätävä, Sade, Lähistöllä Sadekuuroja, Pilvistä
Heikko jäätävä, Sade, Lähistöllä Sadekuuroja, Pilvistä
 Tuulen suunta EKa
Tuuli: EKa 33 km/h
Lämpötila: -2°C
Tuulen purevuus: -10°C
Kastepiste: -4°C
Ilmankosteus: 86%
Ilmanpaine: 1007 hPa
Yhteenveto: Heikko jäätävä, Sade, Lähistöllä Sadekuuroja
Pilvisyys: Pilvistä
Näkyvyys: 10 km
Pilvisyystiedot: Pilvistä 213 m
2017/11/23 23:20 EFKU 232320Z AUTO 15018KT 9999 -FZRA VCSH OVC007 M02/M04 Q1007
EFSI - Seinajoki-Ilmajo, Finland
Etäisyys Sääasemalta: LLu 149km
Päivitetty: 24/11/2017 01:20
Pilvistä
Pilvistä
 Tuulen suunta Ka
Tuuli: Ka 31 km/h
Lämpötila: 2°C
Tuulen purevuus: -4°C
Kastepiste: 1°C
Ilmankosteus: 93%
Ilmanpaine: 996 hPa
Pilvisyys: Pilvistä
Näkyvyys: 5 km
Pilvisyystiedot: Pilvistä 152 m
2017/11/23 23:20 EFSI 232320Z AUTO 14017KT 5000 OVC005 02/01 Q0996